Time;durP1;ratioP1;P1;durP2;ratioP2;P2;SDS_P1;SDS_P2;PMS_P1;PMS_P2;Temp;Humidity;BMP_temperature;BMP_pressure;BME280_temperature;BME280_humidity;BME280_pressure;Samples;Min_cycle;Max_cycle;Signal;HPM_P1;HPM_P2
2021/01/12 00:01:58;;;;;;;;;;;19.20;57.00;;;;;;5054660;28;1301;-68
2021/01/12 00:04:23;;;;;;;;;;;19.20;57.00;;;;;;5054633;28;1587;-66
2021/01/12 00:06:49;;;;;;;;;;;19.10;56.90;;;;;;5053557;28;1282;-67
2021/01/12 00:09:15;;;;;;;;;;;19.10;56.90;;;;;;5054797;28;1357;-66
2021/01/12 00:11:40;;;;;;;;;;;19.10;57.00;;;;;;5054636;28;1340;-66
2021/01/12 00:14:30;;;;;;;;;;;19.10;57.00;;;;;;5054299;28;1138;-66
2021/01/12 00:16:51;;;;;;;;;;;19.20;57.00;;;;;;5053751;28;1248;-66
2021/01/12 00:19:16;;;;;;;;;;;19.10;57.00;;;;;;5054637;28;1902;-66
2021/01/12 00:21:42;;;;;;;;;;;19.10;57.00;;;;;;5054422;28;1297;-66
2021/01/12 00:24:07;;;;;;;;;;;19.10;57.00;;;;;;5053887;28;1352;-68
2021/01/12 00:26:33;;;;;;;;;;;19.10;57.00;;;;;;5054491;28;1293;-68
2021/01/12 00:28:58;;;;;;;;;;;19.10;57.60;;;;;;5054412;28;1372;-67
2021/01/12 00:31:24;;;;;;;;;;;19.10;57.00;;;;;;5054084;28;1388;-67
2021/01/12 00:33:49;;;;;;;;;;;19.10;57.00;;;;;;5053952;28;1303;-67
2021/01/12 00:36:15;;;;;;;;;;;19.10;57.00;;;;;;5053634;28;1348;-67
2021/01/12 00:38:40;;;;;;;;;;;19.10;57.00;;;;;;5054223;28;1902;-67
2021/01/12 00:41:06;;;;;;;;;;;19.10;57.10;;;;;;5054049;28;1330;-68
2021/01/12 00:43:31;;;;;;;;;;;19.10;57.10;;;;;;5053957;28;1349;-67
2021/01/12 00:45:57;;;;;;;;;;;19.10;57.10;;;;;;5053310;28;1475;-67
2021/01/12 00:48:22;;;;;;;;;;;19.10;57.10;;;;;;5093227;22;3042;-67
2021/01/12 00:50:48;;;;;;;;;;;19.00;57.00;;;;;;5088672;28;1679;-67
2021/01/12 00:53:13;;;;;;;;;;;19.10;57.70;;;;;;5072573;28;1649;-67
2021/01/12 00:55:39;;;;;;;;;;;19.00;57.10;;;;;;5073660;28;1457;-66
2021/01/12 00:58:05;;;;;;;;;;;19.10;57.10;;;;;;5057558;28;1969;-67
2021/01/12 01:00:30;;;;;;;;;;;19.00;57.10;;;;;;5054024;28;1721;-67
2021/01/12 01:02:56;;;;;;;;;;;19.00;57.10;;;;;;5052596;28;1689;-68
2021/01/12 01:05:21;;;;;;;;;;;19.00;57.10;;;;;;5053255;28;1395;-67
2021/01/12 01:07:47;;;;;;;;;;;19.00;57.70;;;;;;5053311;28;1404;-68
2021/01/12 01:10:12;;;;;;;;;;;19.00;57.10;;;;;;5053414;28;1482;-67
2021/01/12 01:12:38;;;;;;;;;;;19.00;57.10;;;;;;5051568;28;1368;-67
2021/01/12 01:15:04;;;;;;;;;;;19.00;57.10;;;;;;5053311;28;1708;-67
2021/01/12 01:17:29;;;;;;;;;;;19.00;57.10;;;;;;5052529;28;1657;-67
2021/01/12 01:19:55;;;;;;;;;;;19.00;57.20;;;;;;5053376;28;1957;-67
2021/01/12 01:22:23;;;;;;;;;;;19.00;57.10;;;;;;5051949;28;1650;-68
2021/01/12 01:24:49;;;;;;;;;;;19.00;57.20;;;;;;5053076;28;1387;-68
2021/01/12 01:27:14;;;;;;;;;;;19.00;57.20;;;;;;5052498;28;1365;-68
2021/01/12 01:29:40;;;;;;;;;;;19.00;57.20;;;;;;5052310;28;1419;-67
2021/01/12 01:32:05;;;;;;;;;;;19.00;57.20;;;;;;5052220;28;1580;-67
2021/01/12 01:34:31;;;;;;;;;;;19.00;57.20;;;;;;5052243;28;1319;-67
2021/01/12 01:37:02;;;;;;;;;;;19.00;57.20;;;;;;5053120;28;1683;-67
2021/01/12 01:39:28;;;;;;;;;;;19.00;57.20;;;;;;5051320;28;1967;-66
2021/01/12 01:41:54;;;;;;;;;;;19.00;57.20;;;;;;5053155;28;1211;-66
2021/01/12 01:44:19;;;;;;;;;;;19.00;57.20;;;;;;5052457;28;1390;-65
2021/01/12 01:46:45;;;;;;;;;;;19.00;57.20;;;;;;5052378;28;1395;-66
2021/01/12 01:49:10;;;;;;;;;;;19.00;57.80;;;;;;5053047;28;1455;-67
2021/01/12 01:51:36;;;;;;;;;;;19.00;57.20;;;;;;5052635;28;1692;-67
2021/01/12 01:54:01;;;;;;;;;;;19.00;57.20;;;;;;5051321;28;1661;-67
2021/01/12 01:56:27;;;;;;;;;;;19.00;57.30;;;;;;5052137;28;1665;-67
2021/01/12 01:58:52;;;;;;;;;;;19.00;57.30;;;;;;5051729;28;1985;-67
2021/01/12 02:01:18;;;;;;;;;;;19.00;57.30;;;;;;5052419;28;1381;-66
2021/01/12 02:03:43;;;;;;;;;;;19.00;57.30;;;;;;5052070;28;1372;-67
2021/01/12 02:06:18;;;;;;;;;;;19.00;57.30;;;;;;5052310;28;1443;-67
2021/01/12 02:08:46;;;;;;;;;;;18.90;57.30;;;;;;5052926;28;1723;-67
2021/01/12 02:11:12;;;;;;;;;;;19.00;57.30;;;;;;5034501;28;1209;-67
2021/01/12 02:13:37;;;;;;;;;;;18.90;57.20;;;;;;5051354;28;1426;-67
2021/01/12 02:16:03;;;;;;;;;;;18.90;57.30;;;;;;5050820;28;1384;-66
2021/01/12 02:18:31;;;;;;;;;;;18.90;57.30;;;;;;5050839;28;1902;-66
2021/01/12 02:20:57;;;;;;;;;;;18.90;57.30;;;;;;5052130;28;1711;-66
2021/01/12 02:23:28;;;;;;;;;;;18.90;57.30;;;;;;5051321;28;1557;-66
2021/01/12 02:25:53;;;;;;;;;;;18.90;57.30;;;;;;5050558;28;1437;-67
2021/01/12 02:28:19;;;;;;;;;;;18.90;57.30;;;;;;5051144;28;1760;-67
2021/01/12 02:30:44;;;;;;;;;;;18.90;57.30;;;;;;5052200;28;1556;-67
2021/01/12 02:33:10;;;;;;;;;;;18.90;57.30;;;;;;5052234;28;1346;-67
2021/01/12 02:35:36;;;;;;;;;;;18.90;57.30;;;;;;5051832;28;1504;-67
2021/01/12 02:38:02;;;;;;;;;;;18.90;57.30;;;;;;5051869;28;1949;-67
2021/01/12 02:40:27;;;;;;;;;;;18.90;57.30;;;;;;5050895;28;1337;-67
2021/01/12 02:42:53;;;;;;;;;;;18.90;57.30;;;;;;5052028;28;1384;-66
2021/01/12 02:45:19;;;;;;;;;;;18.90;57.30;;;;;;5051854;28;1413;-66
2021/01/12 02:47:44;;;;;;;;;;;19.00;57.30;;;;;;5050686;28;1682;-67
2021/01/12 02:50:13;;;;;;;;;;;19.00;57.30;;;;;;5034388;28;1737;-67
2021/01/12 02:52:44;;;;;;;;;;;19.00;57.20;;;;;;5050700;28;1678;-67
2021/01/12 02:55:13;;;;;;;;;;;19.00;57.20;;;;;;5051844;28;1673;-67
2021/01/12 02:57:38;;;;;;;;;;;19.00;57.20;;;;;;5050371;28;1728;-67
2021/01/12 03:00:05;;;;;;;;;;;19.00;57.10;;;;;;5050604;28;1926;-67
2021/01/12 03:02:30;;;;;;;;;;;19.00;57.10;;;;;;5041685;28;1307;-67
2021/01/12 03:04:56;;;;;;;;;;;19.00;57.00;;;;;;5051442;28;1697;-66
2021/01/12 03:07:21;;;;;;;;;;;19.00;57.00;;;;;;5051711;28;1441;-66
2021/01/12 03:09:47;;;;;;;;;;;19.00;57.00;;;;;;5052296;28;1383;-67
2021/01/12 03:12:12;;;;;;;;;;;19.10;57.00;;;;;;5052240;28;1627;-66
2021/01/12 03:14:38;;;;;;;;;;;19.10;57.00;;;;;;5050054;28;1490;-67
2021/01/12 03:17:03;;;;;;;;;;;19.10;56.90;;;;;;5051577;28;1353;-67
2021/01/12 03:19:29;;;;;;;;;;;19.10;56.90;;;;;;5050258;28;1965;-67
2021/01/12 03:21:54;;;;;;;;;;;19.10;56.90;;;;;;5051822;28;1015;-67
2021/01/12 03:24:20;;;;;;;;;;;19.10;56.80;;;;;;5051396;28;1362;-67
2021/01/12 03:26:45;;;;;;;;;;;19.20;56.80;;;;;;5048739;28;1416;-66
2021/01/12 03:29:10;;;;;;;;;;;19.20;56.80;;;;;;5049514;28;1510;-66
2021/01/12 03:31:36;;;;;;;;;;;19.20;56.80;;;;;;5050562;28;1605;-67
2021/01/12 03:34:02;;;;;;;;;;;19.20;56.70;;;;;;5051574;28;1764;-67
2021/01/12 03:36:27;;;;;;;;;;;19.20;56.70;;;;;;5051811;28;1380;-68
2021/01/12 03:38:52;;;;;;;;;;;19.10;56.60;;;;;;5055400;28;1898;-67
2021/01/12 03:41:18;;;;;;;;;;;19.20;56.70;;;;;;5055724;28;1726;-67
2021/01/12 03:43:43;;;;;;;;;;;19.20;56.70;;;;;;5055002;28;1247;-68
2021/01/12 03:46:09;;;;;;;;;;;19.20;56.70;;;;;;5051721;28;1210;-67
2021/01/12 03:48:34;;;;;;;;;;;19.20;56.70;;;;;;5051870;28;1356;-67
2021/01/12 03:51:00;;;;;;;;;;;19.20;56.70;;;;;;5054575;28;1388;-66
2021/01/12 03:53:25;;;;;;;;;;;19.20;56.60;;;;;;5053943;28;1707;-67
2021/01/12 03:55:51;;;;;;;;;;;19.20;56.70;;;;;;5054522;28;1645;-67
2021/01/12 03:58:18;;;;;;;;;;;19.20;56.60;;;;;;5052976;28;1973;-67
2021/01/12 04:00:44;;;;;;;;;;;19.20;56.70;;;;;;5054983;28;1071;-67
2021/01/12 04:03:09;;;;;;;;;;;19.20;56.60;;;;;;5053748;28;1345;-67
2021/01/12 04:05:35;;;;;;;;;;;19.20;56.60;;;;;;5054522;28;1454;-66
2021/01/12 04:08:00;;;;;;;;;;;19.20;56.70;;;;;;5054118;28;1264;-66
2021/01/12 04:10:26;;;;;;;;;;;19.20;56.70;;;;;;5054607;28;1139;-67
2021/01/12 04:12:51;;;;;;;;;;;19.20;56.60;;;;;;5048806;28;1074;-67
2021/01/12 04:15:17;;;;;;;;;;;19.20;56.60;;;;;;5054047;28;1090;-66
2021/01/12 04:17:42;;;;;;;;;;;19.20;56.70;;;;;;5052941;28;1380;-67
2021/01/12 04:20:08;;;;;;;;;;;19.20;56.60;;;;;;5054253;28;1898;-66
2021/01/12 04:22:34;;;;;;;;;;;19.20;56.60;;;;;;5054749;28;1118;-68
2021/01/12 04:24:59;;;;;;;;;;;19.20;56.60;;;;;;5054141;28;1187;-67
2021/01/12 04:27:25;;;;;;;;;;;19.20;56.60;;;;;;5054306;28;1457;-67
2021/01/12 04:29:50;;;;;;;;;;;19.20;56.60;;;;;;5054121;28;1083;-66
2021/01/12 04:32:16;;;;;;;;;;;19.20;56.60;;;;;;5054434;28;1103;-67
2021/01/12 04:34:41;;;;;;;;;;;19.20;56.60;;;;;;5054146;28;1298;-66
2021/01/12 04:37:07;;;;;;;;;;;19.20;56.60;;;;;;5054045;28;1206;-66
2021/01/12 04:39:32;;;;;;;;;;;19.20;56.60;;;;;;5054331;28;1957;-67
2021/01/12 04:41:58;;;;;;;;;;;19.20;56.70;;;;;;5053758;28;1459;-67
2021/01/12 04:44:23;;;;;;;;;;;19.20;56.60;;;;;;5053328;28;1356;-66
2021/01/12 04:46:49;;;;;;;;;;;19.20;56.60;;;;;;5052569;28;1321;-66
2021/01/12 04:49:14;;;;;;;;;;;19.20;56.70;;;;;;5053336;28;1239;-67
2021/01/12 04:51:40;;;;;;;;;;;19.20;56.70;;;;;;5041173;28;1193;-67
2021/01/12 04:54:05;;;;;;;;;;;19.20;56.70;;;;;;5051579;28;1404;-66
2021/01/12 04:56:31;;;;;;;;;;;19.20;56.60;;;;;;5053134;28;1377;-67
2021/01/12 04:58:56;;;;;;;;;;;19.20;56.70;;;;;;5053292;28;1964;-67
2021/01/12 05:01:22;;;;;;;;;;;19.20;56.70;;;;;;5053927;28;1367;-66
2021/01/12 05:03:51;;;;;;;;;;;19.20;56.70;;;;;;5052816;28;1177;-66
2021/01/12 05:06:18;;;;;;;;;;;19.20;56.70;;;;;;5052401;28;1717;-67
2021/01/12 05:08:45;;;;;;;;;;;19.20;56.70;;;;;;5053353;28;1471;-66
2021/01/12 05:11:11;;;;;;;;;;;19.20;56.70;;;;;;5051938;28;1099;-67
2021/01/12 05:13:37;;;;;;;;;;;19.20;57.20;;;;;;5053552;28;1154;-67
2021/01/12 05:16:07;;;;;;;;;;;19.20;56.70;;;;;;5053414;28;1185;-67
2021/01/12 05:18:36;;;;;;;;;;;19.20;56.70;;;;;;5052994;28;1894;-66
2021/01/12 05:21:02;;;;;;;;;;;19.20;56.60;;;;;;5051815;28;1274;-66
2021/01/12 05:23:27;;;;;;;;;;;19.20;56.60;;;;;;5051619;28;1431;-66
2021/01/12 05:25:53;;;;;;;;;;;19.20;56.70;;;;;;5051966;28;1301;-67
2021/01/12 05:28:19;;;;;;;;;;;19.20;56.70;;;;;;5053222;28;1345;-67
2021/01/12 05:30:45;;;;;;;;;;;19.20;56.70;;;;;;5053126;28;1185;-67
2021/01/12 05:33:15;;;;;;;;;;;19.20;56.60;;;;;;5051919;28;1445;-67
2021/01/12 05:35:41;;;;;;;;;;;19.20;56.60;;;;;;5052694;28;1460;-67
2021/01/12 05:38:07;;;;;;;;;;;19.20;56.60;;;;;;5051906;28;1901;-66
2021/01/12 05:40:40;;;;;;;;;;;19.20;56.60;;;;;;5053033;28;1106;-67
2021/01/12 05:43:08;;;;;;;;;;;19.20;56.60;;;;;;5053263;28;1250;-67
2021/01/12 05:45:35;;;;;;;;;;;19.20;56.60;;;;;;5051619;28;992;-66
2021/01/12 05:48:00;;;;;;;;;;;19.20;56.60;;;;;;5052094;28;1286;-67
2021/01/12 05:50:26;;;;;;;;;;;19.20;56.60;;;;;;5050705;28;1376;-67
2021/01/12 05:52:54;;;;;;;;;;;19.20;56.60;;;;;;5040562;28;1318;-67
2021/01/12 05:55:19;;;;;;;;;;;19.20;56.60;;;;;;5034601;28;1619;-67
2021/01/12 05:57:46;;;;;;;;;;;19.20;56.60;;;;;;5042967;28;1449;-67
2021/01/12 06:00:12;;;;;;;;;;;19.20;56.60;;;;;;5048479;28;1902;-67
2021/01/12 06:02:38;;;;;;;;;;;19.20;56.60;;;;;;5051651;28;1289;-67
2021/01/12 06:05:04;;;;;;;;;;;19.20;56.60;;;;;;5052684;28;1247;-67
2021/01/12 06:07:29;;;;;;;;;;;19.20;56.60;;;;;;5052279;28;1361;-67
2021/01/12 06:09:55;;;;;;;;;;;19.20;56.60;;;;;;5051360;28;1047;-67
2021/01/12 06:12:23;;;;;;;;;;;19.20;56.60;;;;;;5052600;28;1345;-66
2021/01/12 06:14:49;;;;;;;;;;;19.20;56.60;;;;;;5052075;28;1178;-66
2021/01/12 06:17:15;;;;;;;;;;;19.20;56.60;;;;;;5051552;28;1369;-67
2021/01/12 06:19:44;;;;;;;;;;;19.30;56.60;;;;;;5052003;28;1906;-67
2021/01/12 06:22:16;;;;;;;;;;;19.20;56.60;;;;;;5052021;28;1321;-67
2021/01/12 06:24:52;;;;;;;;;;;19.20;56.50;;;;;;5050617;28;1368;-67
2021/01/12 06:27:24;;;;;;;;;;;19.30;56.50;;;;;;5036331;28;1800;-65
2021/01/12 06:29:50;;;;;;;;;;;19.30;56.50;;;;;;5050253;28;1333;-65
2021/01/12 06:32:15;;;;;;;;;;;19.30;56.50;;;;;;5049844;28;1094;-66
2021/01/12 06:34:41;;;;;;;;;;;19.30;56.50;;;;;;5048672;28;1343;-65
2021/01/12 06:37:08;;;;;;;;;;;19.30;56.50;;;;;;5049996;28;1347;-65
2021/01/12 06:39:43;;;;;;;;;;;19.30;56.50;;;;;;5049411;28;1894;-64
2021/01/12 06:42:09;;;;;;;;;;;19.30;56.50;;;;;;5050124;28;1302;-65
2021/01/12 06:44:35;;;;;;;;;;;19.30;56.50;;;;;;5049342;28;1337;-65
2021/01/12 06:47:01;;;;;;;;;;;19.30;56.50;;;;;;5049312;28;1282;-65
2021/01/12 06:49:29;;;;;;;;;;;19.30;56.50;;;;;;5051322;28;1328;-65
2021/01/12 06:51:59;;;;;;;;;;;19.30;56.50;;;;;;5049388;28;1260;-65
2021/01/12 06:54:35;;;;;;;;;;;19.30;56.50;;;;;;5050859;28;1293;-64
2021/01/12 06:57:01;;;;;;;;;;;19.30;56.50;;;;;;5050572;28;1394;-65
2021/01/12 06:59:33;;;;;;;;;;;19.30;56.50;;;;;;5071552;22;3595;-67
2021/01/12 07:01:59;;;;;;;;;;;19.30;56.50;;;;;;5091174;28;928;-67
2021/01/12 07:04:27;;;;;;;;;;;19.30;56.50;;;;;;5089847;28;1342;-68
2021/01/12 07:06:52;;;;;;;;;;;19.20;56.50;;;;;;5089492;28;1111;-68
2021/01/12 07:09:19;;;;;;;;;;;19.30;56.50;;;;;;5072610;28;1540;-68
2021/01/12 07:11:44;;;;;;;;;;;19.30;56.50;;;;;;5092105;28;1350;-68
2021/01/12 07:14:09;;;;;;;;;;;19.30;56.50;;;;;;5082991;28;1177;-68
2021/01/12 07:16:35;;;;;;;;;;;19.30;56.50;;;;;;5055216;28;1362;-69
2021/01/12 07:19:00;;;;;;;;;;;19.20;56.50;;;;;;5075879;28;1992;-68
2021/01/12 07:21:32;;;;;;;;;;;19.20;56.40;;;;;;5057734;28;1328;-68
2021/01/12 07:24:04;;;;;;;;;;;19.30;56.50;;;;;;5058407;28;2963;-68
2021/01/12 07:26:32;;;;;;;;;;;19.30;56.50;;;;;;5085872;28;1373;-68
2021/01/12 07:29:04;;;;;;;;;;;19.30;56.50;;;;;;5091694;28;1325;-68
2021/01/12 07:31:30;;;;;;;;;;;19.30;56.50;;;;;;5071892;28;1207;-68
2021/01/12 07:33:55;;;;;;;;;;;19.20;56.50;;;;;;5075039;28;1439;-69
2021/01/12 07:36:21;;;;;;;;;;;19.30;56.50;;;;;;5057046;28;1409;-68
2021/01/12 07:38:47;;;;;;;;;;;19.20;56.50;;;;;;5075209;28;1971;-68
2021/01/12 07:41:12;;;;;;;;;;;19.30;56.50;;;;;;5056775;28;1480;-68
2021/01/12 07:43:38;;;;;;;;;;;19.20;56.50;;;;;;5056872;28;1501;-68
2021/01/12 07:46:03;;;;;;;;;;;19.30;56.50;;;;;;5075515;28;1369;-68
2021/01/12 07:48:29;;;;;;;;;;;19.30;56.50;;;;;;5075635;28;1333;-68
2021/01/12 07:50:54;;;;;;;;;;;19.30;56.50;;;;;;5087781;28;1294;-68
2021/01/12 07:53:20;;;;;;;;;;;19.30;56.50;;;;;;5102703;28;1361;-67
2021/01/12 07:55:46;;;;;;;;;;;19.20;56.50;;;;;;5076475;28;1405;-67
2021/01/12 07:58:12;;;;;;;;;;;19.30;56.50;;;;;;5094694;28;1910;-67
2021/01/12 08:00:37;;;;;;;;;;;19.30;56.50;;;;;;5077538;28;1351;-67
2021/01/12 08:03:03;;;;;;;;;;;19.30;56.50;;;;;;5081532;28;1303;-66
2021/01/12 08:05:28;;;;;;;;;;;19.30;56.50;;;;;;5061239;28;1340;-67
2021/01/12 08:08:06;;;;;;;;;;;19.20;56.50;;;;;;5057008;28;1210;-67
2021/01/12 08:10:36;;;;;;;;;;;19.30;56.50;;;;;;5076605;28;1280;-67
2021/01/12 08:13:04;;;;;;;;;;;19.30;56.50;;;;;;5093790;28;1329;-67
2021/01/12 08:15:30;;;;;;;;;;;19.30;56.50;;;;;;5074132;28;1337;-67
2021/01/12 08:17:55;;;;;;;;;;;19.30;56.50;;;;;;5074221;28;1965;-67
2021/01/12 08:20:21;;;;;;;;;;;19.30;56.50;;;;;;5074704;28;1369;-67
2021/01/12 08:22:50;;;;;;;;;;;19.30;56.50;;;;;;5073931;28;1302;-67
2021/01/12 08:25:15;;;;;;;;;;;19.30;56.50;;;;;;5055938;28;1134;-66
2021/01/12 08:27:45;;;;;;;;;;;19.20;56.50;;;;;;5074043;28;1396;-66
2021/01/12 08:30:11;;;;;;;;;;;19.30;56.50;;;;;;5056505;28;1333;-67
2021/01/12 08:32:38;;;;;;;;;;;19.30;56.50;;;;;;5073942;28;1290;-66
2021/01/12 08:35:07;;;;;;;;;;;19.20;56.50;;;;;;5039571;28;1353;-67
2021/01/12 08:37:39;;;;;;;;;;;19.30;56.50;;;;;;5055979;28;1210;-67
2021/01/12 08:40:08;;;;;;;;;;;19.30;56.50;;;;;;5073881;28;1894;-66
2021/01/12 08:42:35;;;;;;;;;;;19.30;56.50;;;;;;5073691;28;1297;-67
2021/01/12 08:45:01;;;;;;;;;;;19.30;56.40;;;;;;5039272;28;1334;-67
2021/01/12 08:47:27;;;;;;;;;;;19.30;56.40;;;;;;5073797;28;1310;-67
2021/01/12 08:50:05;;;;;;;;;;;19.30;56.30;;;;;;5055798;28;1356;-67
2021/01/12 08:52:30;;;;;;;;;;;19.30;56.30;;;;;;5089210;28;1269;-67
2021/01/12 08:54:56;;;;;;;;;;;19.30;56.20;;;;;;5075678;28;1311;-67
2021/01/12 08:57:21;;;;;;;;;;;19.40;56.20;;;;;;5093389;28;1327;-67
2021/01/12 08:59:47;;;;;;;;;;;19.40;56.20;;;;;;5081972;28;1951;-67
2021/01/12 09:02:18;;;;;;;;;;;19.40;56.20;;;;;;5073490;28;1186;-67
2021/01/12 09:04:44;;;;;;;;;;;19.40;56.20;;;;;;5073380;28;989;-67
2021/01/12 09:07:10;;;;;;;;;;;19.40;56.20;;;;;;5073317;28;1283;-67
2021/01/12 09:09:35;;;;;;;;;;;19.40;56.20;;;;;;5073515;28;1346;-67
2021/01/12 09:12:01;;;;;;;;;;;19.40;56.20;;;;;;5073379;28;1310;-67
2021/01/12 09:14:27;;;;;;;;;;;19.40;56.20;;;;;;5078460;28;1214;-67
2021/01/12 09:16:59;;;;;;;;;;;19.40;56.20;;;;;;5072899;28;1438;-67
2021/01/12 09:19:25;;;;;;;;;;;19.40;56.20;;;;;;5073683;28;1955;-67
2021/01/12 09:21:50;;;;;;;;;;;19.40;56.20;;;;;;5055474;28;1549;-66
2021/01/12 09:24:17;;;;;;;;;;;19.40;56.20;;;;;;5073040;28;1297;-67
2021/01/12 09:26:42;;;;;;;;;;;19.40;56.20;;;;;;5072962;28;1324;-67
2021/01/12 09:29:08;;;;;;;;;;;19.40;56.20;;;;;;5072967;28;1274;-67
2021/01/12 09:31:41;;;;;;;;;;;19.40;56.20;;;;;;5055263;28;1351;-67
2021/01/12 09:34:06;;;;;;;;;;;19.40;56.20;;;;;;5072061;28;1230;-67
2021/01/12 09:36:32;;;;;;;;;;;19.40;56.20;;;;;;5072858;28;1342;-67
2021/01/12 09:38:58;;;;;;;;;;;19.40;56.20;;;;;;5054991;28;1955;-67
2021/01/12 09:41:24;;;;;;;;;;;19.40;56.20;;;;;;5038082;28;1378;-67
2021/01/12 09:43:50;;;;;;;;;;;19.40;56.20;;;;;;5072750;28;1346;-67
2021/01/12 09:46:16;;;;;;;;;;;19.40;56.20;;;;;;5061273;28;1304;-67
2021/01/12 09:48:41;;;;;;;;;;;19.40;56.20;;;;;;5075468;28;1463;-66
2021/01/12 09:51:09;;;;;;;;;;;19.40;56.20;;;;;;5101213;28;1570;-67
2021/01/12 09:53:34;;;;;;;;;;;19.40;56.30;;;;;;5079544;28;1126;-67
2021/01/12 09:56:01;;;;;;;;;;;19.40;56.30;;;;;;5093674;28;1271;-67
2021/01/12 09:58:27;;;;;;;;;;;19.40;56.30;;;;;;5091106;28;1959;-67
2021/01/12 10:00:53;;;;;;;;;;;19.30;56.30;;;;;;5054563;28;1287;-67
2021/01/12 10:03:18;;;;;;;;;;;19.40;56.30;;;;;;5072891;28;1337;-67
2021/01/12 10:05:44;;;;;;;;;;;19.40;56.30;;;;;;5037729;28;1700;-67
2021/01/12 10:08:10;;;;;;;;;;;19.30;56.20;;;;;;5072151;28;1346;-67
2021/01/12 10:10:35;;;;;;;;;;;19.40;56.20;;;;;;5072267;28;1345;-66
2021/01/12 10:13:01;;;;;;;;;;;19.40;56.10;;;;;;5077409;28;1392;-66
2021/01/12 10:15:26;;;;;;;;;;;19.50;56.00;;;;;;5071789;28;1302;-66
2021/01/12 10:17:52;;;;;;;;;;;19.60;55.80;;;;;;5072382;28;1259;-67
2021/01/12 10:20:17;;;;;;;;;;;19.70;56.20;;;;;;5072409;28;1911;-67
2021/01/12 10:22:43;;;;;;;;;;;19.90;55.40;;;;;;5072302;28;1107;-68
2021/01/12 10:25:08;;;;;;;;;;;20.00;55.20;;;;;;5037607;28;1526;-69
2021/01/12 10:27:34;;;;;;;;;;;20.10;55.00;;;;;;5072348;28;1271;-68
2021/01/12 10:30:00;;;;;;;;;;;20.20;54.80;;;;;;5053877;28;1255;-68
2021/01/12 10:32:26;;;;;;;;;;;20.20;54.50;;;;;;5053921;28;1308;-68
2021/01/12 10:34:51;;;;;;;;;;;20.30;54.30;;;;;;5054143;28;1338;-68
2021/01/12 10:37:17;;;;;;;;;;;20.30;54.30;;;;;;5072137;28;1305;-68
2021/01/12 10:39:42;;;;;;;;;;;20.30;54.20;;;;;;5072208;28;1898;-68
2021/01/12 10:42:08;;;;;;;;;;;20.30;54.20;;;;;;5037658;28;1460;-68
2021/01/12 10:44:33;;;;;;;;;;;20.40;54.10;;;;;;5071380;28;1302;-68
2021/01/12 10:46:59;;;;;;;;;;;20.40;54.10;;;;;;5074245;28;1298;-68
2021/01/12 10:49:24;;;;;;;;;;;20.40;54.10;;;;;;5076360;28;1330;-67
2021/01/12 10:52:00;;;;;;;;;;;20.40;54.10;;;;;;5103904;28;1285;-68
2021/01/12 10:54:26;;;;;;;;;;;20.50;54.10;;;;;;5077935;28;1394;-68
2021/01/12 10:56:51;;;;;;;;;;;20.50;54.00;;;;;;5077881;28;2000;-68
2021/01/12 10:59:17;;;;;;;;;;;20.50;53.90;;;;;;5069473;28;1894;-67
2021/01/12 11:01:42;;;;;;;;;;;20.60;53.90;;;;;;5075798;28;1138;-68
2021/01/12 11:04:08;;;;;;;;;;;20.60;53.70;;;;;;5075878;28;1266;-68
2021/01/12 11:06:36;;;;;;;;;;;20.70;53.70;;;;;;5075657;28;1297;-67
2021/01/12 11:09:02;;;;;;;;;;;20.70;53.50;;;;;;5058388;28;1370;-68
2021/01/12 11:11:34;;;;;;;;;;;20.80;53.40;;;;;;5075819;28;1341;-68
2021/01/12 11:14:01;;;;;;;;;;;20.80;53.40;;;;;;5079194;28;1138;-66
2021/01/12 11:16:34;;;;;;;;;;;20.80;53.30;;;;;;5075359;28;1314;-66
2021/01/12 11:19:00;;;;;;;;;;;20.80;53.20;;;;;;5057924;28;1898;-66
2021/01/12 11:21:25;;;;;;;;;;;20.90;53.30;;;;;;5075371;28;1334;-66
2021/01/12 11:23:51;;;;;;;;;;;20.90;53.20;;;;;;5075790;28;1107;-66
2021/01/12 11:26:16;;;;;;;;;;;20.90;53.10;;;;;;5074549;28;1279;-66
2021/01/12 11:28:42;;;;;;;;;;;20.90;53.10;;;;;;5075986;28;1273;-66
2021/01/12 11:31:08;;;;;;;;;;;21.00;53.10;;;;;;5075412;28;1358;-66
2021/01/12 11:33:33;;;;;;;;;;;21.00;53.00;;;;;;5075116;28;1340;-66
2021/01/12 11:35:59;;;;;;;;;;;21.10;53.00;;;;;;5057018;28;1567;-66
2021/01/12 11:38:24;;;;;;;;;;;21.10;52.90;;;;;;5075500;28;1894;-66
2021/01/12 11:40:50;;;;;;;;;;;21.10;52.80;;;;;;5074664;28;1266;-66
2021/01/12 11:43:15;;;;;;;;;;;21.20;52.80;;;;;;5075425;28;1313;-67
2021/01/12 11:45:41;;;;;;;;;;;21.20;52.50;;;;;;5074480;28;1319;-67
2021/01/12 11:48:07;;;;;;;;;;;21.20;52.30;;;;;;5075592;28;1344;-67
2021/01/12 11:50:32;;;;;;;;;;;21.20;52.30;;;;;;5081090;28;1278;-67
2021/01/12 11:52:58;;;;;;;;;;;21.20;52.30;;;;;;5105650;28;1461;-67
2021/01/12 11:55:23;;;;;;;;;;;21.10;52.10;;;;;;5094907;28;1302;-67
2021/01/12 11:57:48;;;;;;;;;;;21.10;52.00;;;;;;5088086;28;1965;-66
2021/01/12 12:00:14;;;;;;;;;;;21.10;51.90;;;;;;5078029;28;1905;-66
2021/01/12 12:02:40;;;;;;;;;;;21.10;51.90;;;;;;5074413;28;1017;-66
2021/01/12 12:05:05;;;;;;;;;;;21.10;51.90;;;;;;5074565;28;1326;-66
2021/01/12 12:07:33;;;;;;;;;;;21.10;51.90;;;;;;5074484;28;1275;-65
2021/01/12 12:10:00;;;;;;;;;;;21.10;51.80;;;;;;5074867;28;1333;-67
2021/01/12 12:12:25;;;;;;;;;;;21.10;51.80;;;;;;5075321;28;1384;-67
2021/01/12 12:14:51;;;;;;;;;;;21.10;51.90;;;;;;5060141;28;1355;-67
2021/01/12 12:17:16;;;;;;;;;;;21.00;51.80;;;;;;5074448;28;1314;-67
2021/01/12 12:19:42;;;;;;;;;;;21.00;51.80;;;;;;5074608;28;1918;-67
2021/01/12 12:22:07;;;;;;;;;;;21.00;51.80;;;;;;5056445;28;1323;-67
2021/01/12 12:24:33;;;;;;;;;;;21.00;51.80;;;;;;5073907;28;1166;-67
2021/01/12 12:27:01;;;;;;;;;;;20.90;51.80;;;;;;5074207;28;1286;-67
2021/01/12 12:29:27;;;;;;;;;;;20.90;51.80;;;;;;5057642;28;1345;-67
2021/01/12 12:31:56;;;;;;;;;;;20.90;52.10;;;;;;5074061;28;1301;-67
2021/01/12 12:34:22;;;;;;;;;;;20.90;52.10;;;;;;5073861;28;1111;-67
2021/01/12 12:36:48;;;;;;;;;;;20.90;52.70;;;;;;5056410;28;1358;-67
2021/01/12 12:39:13;;;;;;;;;;;20.80;52.20;;;;;;5073928;28;1910;-68
2021/01/12 12:41:39;;;;;;;;;;;20.80;52.40;;;;;;5073906;28;1210;-67
2021/01/12 12:44:04;;;;;;;;;;;20.80;52.50;;;;;;5073646;28;1310;-66
2021/01/12 12:46:30;;;;;;;;;;;20.80;52.50;;;;;;5073877;28;1304;-68
2021/01/12 12:48:55;;;;;;;;;;;20.80;52.50;;;;;;5055649;28;1283;-67
2021/01/12 12:51:21;;;;;;;;;;;20.70;52.60;;;;;;5093845;28;1253;-67
2021/01/12 12:53:48;;;;;;;;;;;20.70;52.60;;;;;;5096926;28;1357;-67
2021/01/12 12:56:15;;;;;;;;;;;20.70;52.70;;;;;;5075549;28;1318;-68
2021/01/12 12:58:41;;;;;;;;;;;20.70;52.70;;;;;;5072591;28;1905;-68
2021/01/12 13:01:06;;;;;;;;;;;20.60;52.80;;;;;;5069007;22;1978;-64
2021/01/12 13:03:32;;;;;;;;;;;20.60;52.80;;;;;;5056866;28;1374;-66
2021/01/12 13:06:01;;;;;;;;;;;20.60;52.90;;;;;;5053568;28;1283;-64
2021/01/12 13:08:30;;;;;;;;;;;20.60;53.00;;;;;;5052706;28;1287;-64
2021/01/12 13:10:56;;;;;;;;;;;20.60;53.00;;;;;;5024104;28;1431;-64
2021/01/12 13:13:21;;;;;;;;;;;20.60;53.10;;;;;;5025008;28;1027;-63
2021/01/12 13:15:48;;;;;;;;;;;20.50;53.10;;;;;;5035869;28;1295;-64
2021/01/12 13:18:13;;;;;;;;;;;20.50;53.10;;;;;;5035619;28;1969;-64
2021/01/12 13:20:39;;;;;;;;;;;20.50;53.20;;;;;;5053455;28;1366;-64
2021/01/12 13:23:05;;;;;;;;;;;20.50;53.30;;;;;;5053217;28;1350;-64
2021/01/12 13:25:31;;;;;;;;;;;20.50;53.30;;;;;;5033179;28;2202;-65
2021/01/12 13:27:56;;;;;;;;;;;20.50;53.40;;;;;;5052910;28;1288;-64
2021/01/12 13:30:22;;;;;;;;;;;20.40;53.40;;;;;;5035370;28;1361;-64
2021/01/12 13:32:48;;;;;;;;;;;20.40;53.50;;;;;;5034885;28;1375;-65
2021/01/12 13:35:14;;;;;;;;;;;20.40;53.50;;;;;;5024674;28;1317;-64
2021/01/12 13:37:40;;;;;;;;;;;20.40;53.60;;;;;;5049974;28;1260;-65
2021/01/12 13:40:05;;;;;;;;;;;20.40;54.30;;;;;;5035517;28;1906;-65
2021/01/12 13:42:31;;;;;;;;;;;20.40;53.80;;;;;;5034774;28;1363;-64
2021/01/12 13:44:56;;;;;;;;;;;20.30;53.80;;;;;;5034479;28;1285;-64
2021/01/12 13:47:24;;;;;;;;;;;20.30;53.70;;;;;;5034631;28;1394;-63
2021/01/12 13:49:50;;;;;;;;;;;20.30;53.90;;;;;;5052675;28;1686;-65
2021/01/12 13:52:19;;;;;;;;;;;20.30;54.00;;;;;;5034877;28;1411;-63
2021/01/12 13:54:45;;;;;;;;;;;20.30;54.00;;;;;;5052135;28;1311;-63
2021/01/12 13:57:11;;;;;;;;;;;20.30;54.10;;;;;;5052766;28;1304;-65
2021/01/12 13:59:38;;;;;;;;;;;20.20;54.10;;;;;;5035132;28;1973;-63
2021/01/12 14:02:03;;;;;;;;;;;20.20;54.00;;;;;;5017186;28;1334;-63
2021/01/12 14:04:29;;;;;;;;;;;20.20;54.10;;;;;;5031778;28;1295;-64
2021/01/12 14:06:55;;;;;;;;;;;20.20;54.20;;;;;;5032840;28;1349;-63
2021/01/12 14:09:20;;;;;;;;;;;20.20;54.20;;;;;;5033088;28;1299;-63
2021/01/12 14:11:46;;;;;;;;;;;20.20;54.20;;;;;;5032542;28;1355;-63
2021/01/12 14:14:11;;;;;;;;;;;20.20;54.20;;;;;;5047923;28;1148;-64
2021/01/12 14:16:43;;;;;;;;;;;20.20;54.30;;;;;;5052285;28;1283;-65
2021/01/12 14:19:08;;;;;;;;;;;20.20;54.30;;;;;;5034553;28;1918;-65
2021/01/12 14:21:34;;;;;;;;;;;20.10;54.30;;;;;;5052133;28;1208;-65
2021/01/12 14:23:59;;;;;;;;;;;20.10;54.30;;;;;;5051775;28;1341;-65
2021/01/12 14:26:25;;;;;;;;;;;20.10;54.40;;;;;;5034670;28;1286;-65